sensor_id;sensor_type;location;lat;lon;timestamp;pressure;altitude;pressure_sealevel;temperature;humidity
53635;BME280;39542;-34.932;138.594;2023-05-10T00:00:25;102494.80;;;16.22;61.94
53635;BME280;39542;-34.932;138.594;2023-05-10T00:01:00;102496.15;;;16.23;61.98
53635;BME280;39542;-34.932;138.594;2023-05-10T00:01:34;102494.47;;;16.21;62.02
53635;BME280;39542;-34.932;138.594;2023-05-10T00:02:08;102493.74;;;16.21;62.00
53635;BME280;39542;-34.932;138.594;2023-05-10T00:02:42;102497.34;;;16.28;61.81
53635;BME280;39542;-34.932;138.594;2023-05-10T00:03:17;102494.52;;;16.27;61.89
53635;BME280;39542;-34.932;138.594;2023-05-10T00:03:51;102495.62;;;16.27;61.90
53635;BME280;39542;-34.932;138.594;2023-05-10T00:04:25;102491.29;;;16.23;61.98
53635;BME280;39542;-34.932;138.594;2023-05-10T00:04:59;102492.38;;;16.25;61.90
53635;BME280;39542;-34.932;138.594;2023-05-10T00:05:33;102492.86;;;16.27;61.91
53635;BME280;39542;-34.932;138.594;2023-05-10T00:06:08;102491.86;;;16.26;61.93
53635;BME280;39542;-34.932;138.594;2023-05-10T00:06:42;102487.06;;;16.24;61.94
53635;BME280;39542;-34.932;138.594;2023-05-10T00:07:17;102487.10;;;16.23;61.94
53635;BME280;39542;-34.932;138.594;2023-05-10T00:07:51;102486.62;;;16.24;61.99
53635;BME280;39542;-34.932;138.594;2023-05-10T00:08:25;102487.47;;;16.27;61.90
53635;BME280;39542;-34.932;138.594;2023-05-10T00:09:00;102485.36;;;16.26;61.96
53635;BME280;39542;-34.932;138.594;2023-05-10T00:09:34;102483.68;;;16.22;62.00
53635;BME280;39542;-34.932;138.594;2023-05-10T00:10:09;102485.31;;;16.26;61.98
53635;BME280;39542;-34.932;138.594;2023-05-10T00:10:43;102481.60;;;16.23;61.99
53635;BME280;39542;-34.932;138.594;2023-05-10T00:11:17;102481.62;;;16.22;62.05
53635;BME280;39542;-34.932;138.594;2023-05-10T00:11:52;102481.65;;;16.24;61.98
53635;BME280;39542;-34.932;138.594;2023-05-10T00:12:26;102481.36;;;16.26;61.97
53635;BME280;39542;-34.932;138.594;2023-05-10T00:13:00;102481.42;;;16.31;61.89
53635;BME280;39542;-34.932;138.594;2023-05-10T00:13:34;102480.67;;;16.30;61.85
53635;BME280;39542;-34.932;138.594;2023-05-10T00:14:09;102478.92;;;16.23;61.99
53635;BME280;39542;-34.932;138.594;2023-05-10T00:14:43;102478.95;;;16.26;61.99
53635;BME280;39542;-34.932;138.594;2023-05-10T00:15:17;102478.57;;;16.26;61.93
53635;BME280;39542;-34.932;138.594;2023-05-10T00:15:52;102477.66;;;16.26;61.95
53635;BME280;39542;-34.932;138.594;2023-05-10T00:16:26;102477.21;;;16.32;61.90
53635;BME280;39542;-34.932;138.594;2023-05-10T00:17:01;102479.33;;;16.33;61.80
53635;BME280;39542;-34.932;138.594;2023-05-10T00:17:35;102478.42;;;16.32;61.83
53635;BME280;39542;-34.932;138.594;2023-05-10T00:18:09;102475.34;;;16.30;61.89
53635;BME280;39542;-34.932;138.594;2023-05-10T00:18:43;102477.27;;;16.31;61.88
53635;BME280;39542;-34.932;138.594;2023-05-10T00:19:18;102475.54;;;16.34;61.81
53635;BME280;39542;-34.932;138.594;2023-05-10T00:19:52;102475.87;;;16.32;61.84
53635;BME280;39542;-34.932;138.594;2023-05-10T00:20:26;102473.41;;;16.31;61.86
53635;BME280;39542;-34.932;138.594;2023-05-10T00:21:01;102475.79;;;16.31;61.91
53635;BME280;39542;-34.932;138.594;2023-05-10T00:21:35;102474.30;;;16.30;61.92
53635;BME280;39542;-34.932;138.594;2023-05-10T00:22:09;102471.31;;;16.35;61.80
53635;BME280;39542;-34.932;138.594;2023-05-10T00:22:44;102472.91;;;16.35;61.84
53635;BME280;39542;-34.932;138.594;2023-05-10T00:23:18;102470.76;;;16.33;61.89
53635;BME280;39542;-34.932;138.594;2023-05-10T00:23:53;102470.62;;;16.35;61.86
53635;BME280;39542;-34.932;138.594;2023-05-10T00:24:27;102471.91;;;16.37;61.81
53635;BME280;39542;-34.932;138.594;2023-05-10T00:25:01;102472.54;;;16.35;61.86
53635;BME280;39542;-34.932;138.594;2023-05-10T00:25:35;102472.48;;;16.37;61.82
53635;BME280;39542;-34.932;138.594;2023-05-10T00:26:10;102471.36;;;16.40;61.75
53635;BME280;39542;-34.932;138.594;2023-05-10T00:26:44;102471.84;;;16.40;61.85
53635;BME280;39542;-34.932;138.594;2023-05-10T00:27:18;102467.92;;;16.42;61.72
53635;BME280;39542;-34.932;138.594;2023-05-10T00:27:53;102468.25;;;16.41;61.80
53635;BME280;39542;-34.932;138.594;2023-05-10T00:28:28;102466.15;;;16.42;61.73
53635;BME280;39542;-34.932;138.594;2023-05-10T00:29:03;102463.94;;;16.41;61.77
53635;BME280;39542;-34.932;138.594;2023-05-10T00:29:38;102463.38;;;16.40;61.82
53635;BME280;39542;-34.932;138.594;2023-05-10T00:30:12;102463.49;;;16.43;61.81
53635;BME280;39542;-34.932;138.594;2023-05-10T00:30:47;102462.14;;;16.41;61.85
53635;BME280;39542;-34.932;138.594;2023-05-10T00:31:21;102461.22;;;16.40;61.86
53635;BME280;39542;-34.932;138.594;2023-05-10T00:31:55;102461.56;;;16.38;61.93
53635;BME280;39542;-34.932;138.594;2023-05-10T00:32:30;102459.69;;;16.41;61.84
53635;BME280;39542;-34.932;138.594;2023-05-10T00:33:04;102457.83;;;16.38;61.96
53635;BME280;39542;-34.932;138.594;2023-05-10T00:33:38;102459.41;;;16.37;62.02
53635;BME280;39542;-34.932;138.594;2023-05-10T00:34:12;102456.95;;;16.38;61.99
53635;BME280;39542;-34.932;138.594;2023-05-10T00:34:46;102456.67;;;16.38;62.02
53635;BME280;39542;-34.932;138.594;2023-05-10T00:35:21;102458.09;;;16.42;61.92
53635;BME280;39542;-34.932;138.594;2023-05-10T00:35:55;102458.70;;;16.44;61.89
53635;BME280;39542;-34.932;138.594;2023-05-10T00:36:29;102457.30;;;16.39;62.00
53635;BME280;39542;-34.932;138.594;2023-05-10T00:37:04;102457.58;;;16.45;61.89
53635;BME280;39542;-34.932;138.594;2023-05-10T00:37:38;102457.64;;;16.43;61.92
53635;BME280;39542;-34.932;138.594;2023-05-10T00:38:12;102456.09;;;16.44;61.90
53635;BME280;39542;-34.932;138.594;2023-05-10T00:38:46;102458.51;;;16.46;61.86
53635;BME280;39542;-34.932;138.594;2023-05-10T00:39:20;102456.39;;;16.46;61.89
53635;BME280;39542;-34.932;138.594;2023-05-10T00:39:54;102455.61;;;16.42;61.98
53635;BME280;39542;-34.932;138.594;2023-05-10T00:40:29;102455.94;;;16.43;61.93
53635;BME280;39542;-34.932;138.594;2023-05-10T00:41:03;102453.15;;;16.39;62.02
53635;BME280;39542;-34.932;138.594;2023-05-10T00:41:37;102456.22;;;16.39;62.07
53635;BME280;39542;-34.932;138.594;2023-05-10T00:42:12;102456.20;;;16.41;62.11
53635;BME280;39542;-34.932;138.594;2023-05-10T00:42:46;102454.96;;;16.42;62.03
53635;BME280;39542;-34.932;138.594;2023-05-10T00:43:20;102456.70;;;16.40;62.10
53635;BME280;39542;-34.932;138.594;2023-05-10T00:43:54;102455.88;;;16.43;62.06
53635;BME280;39542;-34.932;138.594;2023-05-10T00:44:28;102451.64;;;16.38;62.14
53635;BME280;39542;-34.932;138.594;2023-05-10T00:45:03;102452.75;;;16.41;62.10
53635;BME280;39542;-34.932;138.594;2023-05-10T00:45:37;102452.96;;;16.43;62.13
53635;BME280;39542;-34.932;138.594;2023-05-10T00:46:14;102452.54;;;16.43;62.11
53635;BME280;39542;-34.932;138.594;2023-05-10T00:46:50;102451.60;;;16.46;62.03
53635;BME280;39542;-34.932;138.594;2023-05-10T00:47:24;102447.93;;;16.47;62.07
53635;BME280;39542;-34.932;138.594;2023-05-10T00:47:59;102451.51;;;16.49;62.01
53635;BME280;39542;-34.932;138.594;2023-05-10T00:48:33;102448.91;;;16.46;62.04
53635;BME280;39542;-34.932;138.594;2023-05-10T00:49:08;102446.93;;;16.46;62.06
53635;BME280;39542;-34.932;138.594;2023-05-10T00:49:42;102445.55;;;16.47;62.09
53635;BME280;39542;-34.932;138.594;2023-05-10T00:50:17;102445.68;;;16.45;62.11
53635;BME280;39542;-34.932;138.594;2023-05-10T00:50:52;102444.54;;;16.42;62.18
53635;BME280;39542;-34.932;138.594;2023-05-10T00:51:26;102444.46;;;16.39;62.29
53635;BME280;39542;-34.932;138.594;2023-05-10T00:52:00;102445.22;;;16.42;62.27
53635;BME280;39542;-34.932;138.594;2023-05-10T00:52:35;102441.91;;;16.44;62.16
53635;BME280;39542;-34.932;138.594;2023-05-10T00:53:09;102442.44;;;16.47;62.15
53635;BME280;39542;-34.932;138.594;2023-05-10T00:53:44;102442.01;;;16.47;62.09
53635;BME280;39542;-34.932;138.594;2023-05-10T00:54:19;102440.25;;;16.45;62.19
53635;BME280;39542;-34.932;138.594;2023-05-10T00:54:55;102439.94;;;16.45;62.20
53635;BME280;39542;-34.932;138.594;2023-05-10T00:55:30;102438.64;;;16.46;62.19
53635;BME280;39542;-34.932;138.594;2023-05-10T00:56:05;102439.16;;;16.45;62.20
53635;BME280;39542;-34.932;138.594;2023-05-10T00:56:40;102438.38;;;16.45;62.23
53635;BME280;39542;-34.932;138.594;2023-05-10T00:57:14;102440.27;;;16.47;62.19
53635;BME280;39542;-34.932;138.594;2023-05-10T00:57:49;102442.98;;;16.48;62.17
53635;BME280;39542;-34.932;138.594;2023-05-10T00:58:23;102443.32;;;16.50;62.15
53635;BME280;39542;-34.932;138.594;2023-05-10T00:58:58;102443.59;;;16.48;62.12
53635;BME280;39542;-34.932;138.594;2023-05-10T00:59:32;102444.88;;;16.50;62.14
53635;BME280;39542;-34.932;138.594;2023-05-10T01:00:08;102445.89;;;16.50;62.18
53635;BME280;39542;-34.932;138.594;2023-05-10T01:00:43;102446.61;;;16.50;62.15
53635;BME280;39542;-34.932;138.594;2023-05-10T01:01:21;102447.15;;;16.50;62.15
53635;BME280;39542;-34.932;138.594;2023-05-10T01:01:56;102450.48;;;16.49;62.20
53635;BME280;39542;-34.932;138.594;2023-05-10T01:02:31;102447.64;;;16.53;62.14
53635;BME280;39542;-34.932;138.594;2023-05-10T01:03:07;102449.71;;;16.50;62.19
53635;BME280;39542;-34.932;138.594;2023-05-10T01:03:41;102450.20;;;16.49;62.19
53635;BME280;39542;-34.932;138.594;2023-05-10T01:04:16;102448.16;;;16.50;62.23
53635;BME280;39542;-34.932;138.594;2023-05-10T01:04:50;102449.51;;;16.49;62.22
53635;BME280;39542;-34.932;138.594;2023-05-10T01:05:24;102451.02;;;16.52;62.20
53635;BME280;39542;-34.932;138.594;2023-05-10T01:05:59;102449.87;;;16.51;62.19
53635;BME280;39542;-34.932;138.594;2023-05-10T01:06:34;102450.36;;;16.50;62.22
53635;BME280;39542;-34.932;138.594;2023-05-10T01:07:09;102449.14;;;16.51;62.27
53635;BME280;39542;-34.932;138.594;2023-05-10T01:07:43;102448.83;;;16.50;62.24
53635;BME280;39542;-34.932;138.594;2023-05-10T01:08:17;102451.68;;;16.47;62.33
53635;BME280;39542;-34.932;138.594;2023-05-10T01:08:52;102450.52;;;16.50;62.26
53635;BME280;39542;-34.932;138.594;2023-05-10T01:09:26;102448.62;;;16.54;62.17
53635;BME280;39542;-34.932;138.594;2023-05-10T01:10:01;102445.65;;;16.52;62.26
53635;BME280;39542;-34.932;138.594;2023-05-10T01:10:35;102445.88;;;16.59;62.06
53635;BME280;39542;-34.932;138.594;2023-05-10T01:11:10;102443.64;;;16.54;62.19
53635;BME280;39542;-34.932;138.594;2023-05-10T01:11:44;102447.72;;;16.58;62.14
53635;BME280;39542;-34.932;138.594;2023-05-10T01:12:19;102446.94;;;16.54;62.25
53635;BME280;39542;-34.932;138.594;2023-05-10T01:12:53;102445.10;;;16.55;62.18
53635;BME280;39542;-34.932;138.594;2023-05-10T01:13:33;102443.87;;;16.59;62.13
53635;BME280;39542;-34.932;138.594;2023-05-10T01:14:08;102444.12;;;16.60;62.09
53635;BME280;39542;-34.932;138.594;2023-05-10T01:14:42;102443.48;;;16.58;62.11
53635;BME280;39542;-34.932;138.594;2023-05-10T01:15:17;102443.92;;;16.56;62.22
53635;BME280;39542;-34.932;138.594;2023-05-10T01:15:53;102443.02;;;16.57;62.21
53635;BME280;39542;-34.932;138.594;2023-05-10T01:16:29;102441.38;;;16.56;62.31
53635;BME280;39542;-34.932;138.594;2023-05-10T01:17:04;102441.15;;;16.53;62.32
53635;BME280;39542;-34.932;138.594;2023-05-10T01:17:42;102442.56;;;16.52;62.40
53635;BME280;39542;-34.932;138.594;2023-05-10T01:18:20;102441.85;;;16.56;62.29
53635;BME280;39542;-34.932;138.594;2023-05-10T01:18:55;102441.49;;;16.54;62.32
53635;BME280;39542;-34.932;138.594;2023-05-10T01:19:31;102443.45;;;16.60;62.26
53635;BME280;39542;-34.932;138.594;2023-05-10T01:20:09;102438.39;;;16.62;62.25
53635;BME280;39542;-34.932;138.594;2023-05-10T01:20:48;102438.21;;;16.63;62.21
53635;BME280;39542;-34.932;138.594;2023-05-10T01:21:30;102437.34;;;16.58;62.30
53635;BME280;39542;-34.932;138.594;2023-05-10T01:22:13;102433.57;;;16.54;62.39
53635;BME280;39542;-34.932;138.594;2023-05-10T01:23:30;102432.24;;;16.57;62.39
53635;BME280;39542;-34.932;138.594;2023-05-10T01:24:24;102431.77;;;16.58;62.32
53635;BME280;39542;-34.932;138.594;2023-05-10T01:25:28;102427.50;;;16.62;62.32
53635;BME280;39542;-34.932;138.594;2023-05-10T01:26:23;102429.83;;;16.61;62.43
53635;BME280;39542;-34.932;138.594;2023-05-10T01:28:23;102425.82;;;16.60;62.49
53635;BME280;39542;-34.932;138.594;2023-05-10T01:29:42;102421.45;;;16.61;62.57
53635;BME280;39542;-34.932;138.594;2023-05-10T01:31:30;102422.63;;;16.62;62.54
53635;BME280;39542;-34.932;138.594;2023-05-10T01:32:21;102421.54;;;16.64;62.65
53635;BME280;39542;-34.932;138.594;2023-05-10T01:33:02;102419.92;;;16.67;62.61
53635;BME280;39542;-34.932;138.594;2023-05-10T01:33:50;102418.07;;;16.65;62.73
53635;BME280;39542;-34.932;138.594;2023-05-10T01:34:31;102417.34;;;16.66;62.67
53635;BME280;39542;-34.932;138.594;2023-05-10T01:35:13;102416.59;;;16.67;62.64
53635;BME280;39542;-34.932;138.594;2023-05-10T01:35:55;102414.69;;;16.68;62.64
53635;BME280;39542;-34.932;138.594;2023-05-10T01:36:35;102414.16;;;16.69;62.60
53635;BME280;39542;-34.932;138.594;2023-05-10T01:37:19;102415.40;;;16.68;62.62
53635;BME280;39542;-34.932;138.594;2023-05-10T01:38:02;102414.44;;;16.59;62.80
53635;BME280;39542;-34.932;138.594;2023-05-10T01:38:43;102413.65;;;16.68;62.70
53635;BME280;39542;-34.932;138.594;2023-05-10T01:39:24;102414.18;;;16.68;62.67
53635;BME280;39542;-34.932;138.594;2023-05-10T01:40:05;102411.58;;;16.67;62.64
53635;BME280;39542;-34.932;138.594;2023-05-10T01:40:48;102409.94;;;16.61;62.85
53635;BME280;39542;-34.932;138.594;2023-05-10T01:41:34;102411.88;;;16.68;62.66
53635;BME280;39542;-34.932;138.594;2023-05-10T01:42:14;102409.97;;;16.65;62.70
53635;BME280;39542;-34.932;138.594;2023-05-10T01:42:53;102409.22;;;16.64;62.80
53635;BME280;39542;-34.932;138.594;2023-05-10T01:43:32;102409.44;;;16.65;62.79
53635;BME280;39542;-34.932;138.594;2023-05-10T01:44:16;102409.20;;;16.65;62.76
53635;BME280;39542;-34.932;138.594;2023-05-10T01:44:56;102406.72;;;16.66;62.76
53635;BME280;39542;-34.932;138.594;2023-05-10T01:45:37;102407.02;;;16.65;62.77
53635;BME280;39542;-34.932;138.594;2023-05-10T01:46:17;102407.91;;;16.67;62.80
53635;BME280;39542;-34.932;138.594;2023-05-10T01:46:56;102405.97;;;16.67;62.77
53635;BME280;39542;-34.932;138.594;2023-05-10T01:47:41;102405.57;;;16.67;62.81
53635;BME280;39542;-34.932;138.594;2023-05-10T01:48:16;102405.06;;;16.65;62.88
53635;BME280;39542;-34.932;138.594;2023-05-10T01:48:54;102401.89;;;16.68;62.80
53635;BME280;39542;-34.932;138.594;2023-05-10T01:49:34;102401.28;;;16.63;62.90
53635;BME280;39542;-34.932;138.594;2023-05-10T01:50:15;102398.12;;;16.62;62.91
53635;BME280;39542;-34.932;138.594;2023-05-10T01:50:50;102396.83;;;16.56;63.09
53635;BME280;39542;-34.932;138.594;2023-05-10T01:51:27;102397.36;;;16.59;63.02
53635;BME280;39542;-34.932;138.594;2023-05-10T01:52:08;102396.43;;;16.63;62.94
53635;BME280;39542;-34.932;138.594;2023-05-10T01:52:44;102394.22;;;16.65;62.98
53635;BME280;39542;-34.932;138.594;2023-05-10T01:53:22;102392.75;;;16.63;63.02
53635;BME280;39542;-34.932;138.594;2023-05-10T01:54:01;102394.81;;;16.63;62.94
53635;BME280;39542;-34.932;138.594;2023-05-10T01:54:37;102391.95;;;16.59;62.98
53635;BME280;39542;-34.932;138.594;2023-05-10T01:55:16;102392.60;;;16.62;62.99
53635;BME280;39542;-34.932;138.594;2023-05-10T01:55:53;102393.79;;;16.60;63.06
53635;BME280;39542;-34.932;138.594;2023-05-10T01:56:31;102391.42;;;16.68;62.93
53635;BME280;39542;-34.932;138.594;2023-05-10T01:57:08;102390.64;;;16.65;62.95
53635;BME280;39542;-34.932;138.594;2023-05-10T01:57:45;102389.82;;;16.68;62.93
53635;BME280;39542;-34.932;138.594;2023-05-10T01:58:24;102389.50;;;16.62;63.00
53635;BME280;39542;-34.932;138.594;2023-05-10T01:59:00;102386.33;;;16.69;62.89
53635;BME280;39542;-34.932;138.594;2023-05-10T01:59:37;102390.24;;;16.70;62.86
53635;BME280;39542;-34.932;138.594;2023-05-10T02:00:13;102385.57;;;16.65;63.01
53635;BME280;39542;-34.932;138.594;2023-05-10T02:00:49;102384.54;;;16.66;62.99
53635;BME280;39542;-34.932;138.594;2023-05-10T02:01:26;102381.92;;;16.67;62.95
53635;BME280;39542;-34.932;138.594;2023-05-10T02:02:01;102382.20;;;16.68;62.89
53635;BME280;39542;-34.932;138.594;2023-05-10T02:02:38;102381.37;;;16.69;62.98
53635;BME280;39542;-34.932;138.594;2023-05-10T02:03:14;102379.56;;;16.71;62.95
53635;BME280;39542;-34.932;138.594;2023-05-10T02:03:51;102377.06;;;16.69;62.96
53635;BME280;39542;-34.932;138.594;2023-05-10T02:04:27;102376.46;;;16.66;63.08
53635;BME280;39542;-34.932;138.594;2023-05-10T02:05:02;102374.18;;;16.66;63.03
53635;BME280;39542;-34.932;138.594;2023-05-10T02:05:37;102375.01;;;16.68;63.00
53635;BME280;39542;-34.932;138.594;2023-05-10T02:06:13;102373.47;;;16.73;62.95
53635;BME280;39542;-34.932;138.594;2023-05-10T02:06:49;102373.27;;;16.75;62.87
53635;BME280;39542;-34.932;138.594;2023-05-10T02:07:25;102372.26;;;16.76;62.80
53635;BME280;39542;-34.932;138.594;2023-05-10T02:08:01;102374.04;;;16.74;62.94
53635;BME280;39542;-34.932;138.594;2023-05-10T02:08:37;102370.44;;;16.72;62.96
53635;BME280;39542;-34.932;138.594;2023-05-10T02:09:13;102370.68;;;16.79;62.80
53635;BME280;39542;-34.932;138.594;2023-05-10T02:09:49;102369.59;;;16.79;62.80
53635;BME280;39542;-34.932;138.594;2023-05-10T02:10:23;102367.08;;;16.77;62.86
53635;BME280;39542;-34.932;138.594;2023-05-10T02:10:58;102366.39;;;16.73;62.93
53635;BME280;39542;-34.932;138.594;2023-05-10T02:11:33;102365.28;;;16.75;62.85
53635;BME280;39542;-34.932;138.594;2023-05-10T02:12:09;102365.98;;;16.74;62.93
53635;BME280;39542;-34.932;138.594;2023-05-10T02:12:45;102365.03;;;16.79;62.82
53635;BME280;39542;-34.932;138.594;2023-05-10T02:13:21;102363.99;;;16.76;62.93
53635;BME280;39542;-34.932;138.594;2023-05-10T02:13:57;102359.89;;;16.72;62.97
53635;BME280;39542;-34.932;138.594;2023-05-10T02:14:35;102358.28;;;16.74;62.94
53635;BME280;39542;-34.932;138.594;2023-05-10T02:15:11;102356.88;;;16.69;63.02
53635;BME280;39542;-34.932;138.594;2023-05-10T02:15:48;102353.85;;;16.70;63.07
53635;BME280;39542;-34.932;138.594;2023-05-10T02:16:26;102352.80;;;16.81;62.80
53635;BME280;39542;-34.932;138.594;2023-05-10T02:17:01;102352.05;;;16.73;62.96
53635;BME280;39542;-34.932;138.594;2023-05-10T02:17:37;102351.07;;;16.77;62.91
53635;BME280;39542;-34.932;138.594;2023-05-10T02:18:12;102350.92;;;16.71;63.04
53635;BME280;39542;-34.932;138.594;2023-05-10T02:18:48;102352.77;;;16.74;62.99
53635;BME280;39542;-34.932;138.594;2023-05-10T02:19:23;102352.81;;;16.77;62.93
53635;BME280;39542;-34.932;138.594;2023-05-10T02:20:00;102351.47;;;16.74;62.92
53635;BME280;39542;-34.932;138.594;2023-05-10T02:20:36;102349.96;;;16.73;62.99
53635;BME280;39542;-34.932;138.594;2023-05-10T02:21:12;102349.34;;;16.77;62.92
53635;BME280;39542;-34.932;138.594;2023-05-10T02:21:48;102344.62;;;16.71;63.03
53635;BME280;39542;-34.932;138.594;2023-05-10T02:22:24;102346.10;;;16.76;62.96
53635;BME280;39542;-34.932;138.594;2023-05-10T02:23:00;102344.75;;;16.80;62.94
53635;BME280;39542;-34.932;138.594;2023-05-10T02:23:36;102344.94;;;16.74;62.97
53635;BME280;39542;-34.932;138.594;2023-05-10T02:24:12;102342.91;;;16.71;63.06
53635;BME280;39542;-34.932;138.594;2023-05-10T02:24:48;102342.03;;;16.76;63.02
53635;BME280;39542;-34.932;138.594;2023-05-10T02:25:25;102340.25;;;16.72;63.05
53635;BME280;39542;-34.932;138.594;2023-05-10T02:26:01;102343.00;;;16.69;63.12
53635;BME280;39542;-34.932;138.594;2023-05-10T02:26:37;102342.13;;;16.71;63.10
53635;BME280;39542;-34.932;138.594;2023-05-10T02:27:13;102342.44;;;16.73;63.03
53635;BME280;39542;-34.932;138.594;2023-05-10T02:27:49;102342.51;;;16.73;63.13
53635;BME280;39542;-34.932;138.594;2023-05-10T02:28:25;102339.67;;;16.73;63.07
53635;BME280;39542;-34.932;138.594;2023-05-10T02:29:00;102338.65;;;16.79;62.93
53635;BME280;39542;-34.932;138.594;2023-05-10T02:29:36;102338.23;;;16.79;62.93
53635;BME280;39542;-34.932;138.594;2023-05-10T02:30:12;102338.30;;;16.80;62.92
53635;BME280;39542;-34.932;138.594;2023-05-10T02:30:47;102338.16;;;16.78;62.96
53635;BME280;39542;-34.932;138.594;2023-05-10T02:31:22;102337.48;;;16.79;62.94
53635;BME280;39542;-34.932;138.594;2023-05-10T02:31:57;102339.25;;;16.79;62.97
53635;BME280;39542;-34.932;138.594;2023-05-10T02:32:32;102336.82;;;16.76;62.98
53635;BME280;39542;-34.932;138.594;2023-05-10T02:33:08;102337.14;;;16.78;62.99
53635;BME280;39542;-34.932;138.594;2023-05-10T02:33:43;102335.16;;;16.73;63.10
53635;BME280;39542;-34.932;138.594;2023-05-10T02:34:18;102332.54;;;16.73;63.05
53635;BME280;39542;-34.932;138.594;2023-05-10T02:34:54;102331.02;;;16.73;63.05
53635;BME280;39542;-34.932;138.594;2023-05-10T02:35:28;102330.08;;;16.73;63.06
53635;BME280;39542;-34.932;138.594;2023-05-10T02:36:04;102327.74;;;16.66;63.22
53635;BME280;39542;-34.932;138.594;2023-05-10T02:36:40;102325.16;;;16.70;63.16
53635;BME280;39542;-34.932;138.594;2023-05-10T02:37:16;102325.62;;;16.74;63.09
53635;BME280;39542;-34.932;138.594;2023-05-10T02:37:52;102323.77;;;16.75;63.10
53635;BME280;39542;-34.932;138.594;2023-05-10T02:38:27;102324.87;;;16.73;63.10
53635;BME280;39542;-34.932;138.594;2023-05-10T02:39:03;102322.63;;;16.74;63.13
53635;BME280;39542;-34.932;138.594;2023-05-10T02:39:38;102319.84;;;16.76;63.06
53635;BME280;39542;-34.932;138.594;2023-05-10T02:40:13;102318.36;;;16.75;63.07
53635;BME280;39542;-34.932;138.594;2023-05-10T02:40:50;102319.59;;;16.71;63.14
53635;BME280;39542;-34.932;138.594;2023-05-10T02:41:24;102318.04;;;16.72;63.07
53635;BME280;39542;-34.932;138.594;2023-05-10T02:42:00;102316.86;;;16.76;62.99
53635;BME280;39542;-34.932;138.594;2023-05-10T02:42:37;102316.31;;;16.74;63.09
53635;BME280;39542;-34.932;138.594;2023-05-10T02:43:14;102316.72;;;16.77;63.02
53635;BME280;39542;-34.932;138.594;2023-05-10T02:43:52;102311.63;;;16.81;62.93
53635;BME280;39542;-34.932;138.594;2023-05-10T02:44:28;102309.34;;;16.78;63.01
53635;BME280;39542;-34.932;138.594;2023-05-10T02:45:10;102314.50;;;16.73;63.10
53635;BME280;39542;-34.932;138.594;2023-05-10T02:45:48;102312.14;;;16.77;62.99
53635;BME280;39542;-34.932;138.594;2023-05-10T02:46:23;102311.88;;;16.77;63.08
53635;BME280;39542;-34.932;138.594;2023-05-10T02:46:58;102309.41;;;16.73;63.09
53635;BME280;39542;-34.932;138.594;2023-05-10T02:47:32;102308.29;;;16.71;63.14
53635;BME280;39542;-34.932;138.594;2023-05-10T02:48:07;102307.86;;;16.74;63.07
53635;BME280;39542;-34.932;138.594;2023-05-10T02:48:41;102303.75;;;16.77;63.05
53635;BME280;39542;-34.932;138.594;2023-05-10T02:49:15;102302.27;;;16.78;63.04
53635;BME280;39542;-34.932;138.594;2023-05-10T02:49:50;102298.39;;;16.80;62.98
53635;BME280;39542;-34.932;138.594;2023-05-10T02:50:28;102297.47;;;16.77;63.08
53635;BME280;39542;-34.932;138.594;2023-05-10T02:51:07;102297.07;;;16.84;62.90
53635;BME280;39542;-34.932;138.594;2023-05-10T02:51:44;102295.21;;;16.78;63.01
53635;BME280;39542;-34.932;138.594;2023-05-10T02:52:25;102293.15;;;16.75;63.12
53635;BME280;39542;-34.932;138.594;2023-05-10T02:53:03;102291.73;;;16.77;63.04
53635;BME280;39542;-34.932;138.594;2023-05-10T02:53:43;102291.36;;;16.80;62.96
53635;BME280;39542;-34.932;138.594;2023-05-10T02:54:21;102288.85;;;16.79;63.05
53635;BME280;39542;-34.932;138.594;2023-05-10T02:55:02;102288.95;;;16.78;63.06
53635;BME280;39542;-34.932;138.594;2023-05-10T02:55:40;102288.05;;;16.80;63.05
53635;BME280;39542;-34.932;138.594;2023-05-10T02:56:25;102286.76;;;16.79;63.03
53635;BME280;39542;-34.932;138.594;2023-05-10T02:57:04;102284.36;;;16.78;63.01
53635;BME280;39542;-34.932;138.594;2023-05-10T02:57:43;102281.99;;;16.77;63.03
53635;BME280;39542;-34.932;138.594;2023-05-10T02:58:20;102281.31;;;16.82;63.00
53635;BME280;39542;-34.932;138.594;2023-05-10T02:58:55;102280.70;;;16.81;63.01
53635;BME280;39542;-34.932;138.594;2023-05-10T02:59:30;102278.39;;;16.76;63.13
53635;BME280;39542;-34.932;138.594;2023-05-10T03:00:06;102277.61;;;16.83;62.97
53635;BME280;39542;-34.932;138.594;2023-05-10T03:00:42;102274.73;;;16.83;62.97
53635;BME280;39542;-34.932;138.594;2023-05-10T03:01:16;102274.26;;;16.79;63.03
53635;BME280;39542;-34.932;138.594;2023-05-10T03:01:51;102271.55;;;16.77;63.06
53635;BME280;39542;-34.932;138.594;2023-05-10T03:02:25;102269.22;;;16.79;63.02
53635;BME280;39542;-34.932;138.594;2023-05-10T03:03:00;102270.05;;;16.79;63.04
53635;BME280;39542;-34.932;138.594;2023-05-10T03:03:34;102266.97;;;16.78;63.07
53635;BME280;39542;-34.932;138.594;2023-05-10T03:04:08;102263.51;;;16.75;63.08
53635;BME280;39542;-34.932;138.594;2023-05-10T03:04:42;102261.68;;;16.79;63.04
53635;BME280;39542;-34.932;138.594;2023-05-10T03:05:16;102262.88;;;16.77;63.10
53635;BME280;39542;-34.932;138.594;2023-05-10T03:05:50;102260.54;;;16.82;62.97
53635;BME280;39542;-34.932;138.594;2023-05-10T03:06:25;102258.17;;;16.76;63.14